sensor_id;sensor_type;location;lat;lon;timestamp;pressure;altitude;pressure_sealevel;temperature;humidity
43741;BME280;29352;48.708;9.290;2023-04-09T00:01:07;98508.84;;;0.07;80.27
43741;BME280;29352;48.708;9.290;2023-04-09T00:03:34;98498.31;;;-0.03;80.16
43741;BME280;29352;48.708;9.290;2023-04-09T00:06:01;98507.63;;;-0.30;81.17
43741;BME280;29352;48.708;9.290;2023-04-09T00:08:28;98499.75;;;-0.20;80.90
43741;BME280;29352;48.708;9.290;2023-04-09T00:10:53;98502.94;;;-0.26;80.98
43741;BME280;29352;48.708;9.290;2023-04-09T00:13:20;98498.56;;;-0.16;80.85
43741;BME280;29352;48.708;9.290;2023-04-09T00:15:46;98496.56;;;-0.24;80.48
43741;BME280;29352;48.708;9.290;2023-04-09T00:18:12;98492.94;;;-0.02;79.98
43741;BME280;29352;48.708;9.290;2023-04-09T00:20:38;98499.34;;;-0.25;80.31
43741;BME280;29352;48.708;9.290;2023-04-09T00:23:03;98498.31;;;-0.43;80.80
43741;BME280;29352;48.708;9.290;2023-04-09T00:25:29;98496.97;;;-0.28;80.33
43741;BME280;29352;48.708;9.290;2023-04-09T00:27:55;98496.13;;;0.02;79.73
43741;BME280;29352;48.708;9.290;2023-04-09T00:30:21;98498.00;;;-0.10;80.14
43741;BME280;29352;48.708;9.290;2023-04-09T00:32:47;98495.75;;;-0.24;79.99
43741;BME280;29352;48.708;9.290;2023-04-09T00:35:13;98499.25;;;-0.14;80.43
43741;BME280;29352;48.708;9.290;2023-04-09T00:37:38;98499.50;;;-0.17;79.60
43741;BME280;29352;48.708;9.290;2023-04-09T00:40:04;98493.09;;;0.07;79.66
43741;BME280;29352;48.708;9.290;2023-04-09T00:42:34;98489.44;;;-0.12;79.19
43741;BME280;29352;48.708;9.290;2023-04-09T00:45:02;98485.88;;;-0.41;81.05
43741;BME280;29352;48.708;9.290;2023-04-09T00:47:29;98483.59;;;-0.25;80.24
43741;BME280;29352;48.708;9.290;2023-04-09T00:49:57;98492.19;;;-0.13;79.73
43741;BME280;29352;48.708;9.290;2023-04-09T00:52:25;98488.13;;;0.13;78.00
43741;BME280;29352;48.708;9.290;2023-04-09T00:54:52;98486.06;;;0.17;77.13
43741;BME280;29352;48.708;9.290;2023-04-09T00:57:18;98492.19;;;-0.23;79.88
43741;BME280;29352;48.708;9.290;2023-04-09T00:59:44;98490.75;;;-0.27;80.61
43741;BME280;29352;48.708;9.290;2023-04-09T01:02:09;98498.69;;;-0.17;80.24
43741;BME280;29352;48.708;9.290;2023-04-09T01:04:41;98492.16;;;-0.33;81.17
43741;BME280;29352;48.708;9.290;2023-04-09T01:10:10;98493.22;;;-0.35;81.08
43741;BME280;29352;48.708;9.290;2023-04-09T01:13:11;98480.56;;;-0.30;79.13
43741;BME280;29352;48.708;9.290;2023-04-09T01:15:52;98484.94;;;-0.31;78.65
43741;BME280;29352;48.708;9.290;2023-04-09T01:20:58;98482.56;;;-0.03;78.63
43741;BME280;29352;48.708;9.290;2023-04-09T01:23:42;98483.22;;;-0.11;80.15
43741;BME280;29352;48.708;9.290;2023-04-09T01:29:24;98484.03;;;-0.60;81.63
43741;BME280;29352;48.708;9.290;2023-04-09T01:31:51;98490.59;;;-0.66;82.31
43741;BME280;29352;48.708;9.290;2023-04-09T01:34:19;98490.94;;;-0.80;82.81
43741;BME280;29352;48.708;9.290;2023-04-09T01:36:52;98493.00;;;-0.84;82.63
43741;BME280;29352;48.708;9.290;2023-04-09T01:39:21;98492.78;;;-0.71;83.25
43741;BME280;29352;48.708;9.290;2023-04-09T01:41:49;98493.31;;;-0.77;82.25
43741;BME280;29352;48.708;9.290;2023-04-09T01:44:16;98492.09;;;-0.73;82.16
43741;BME280;29352;48.708;9.290;2023-04-09T01:46:46;98486.25;;;-0.56;81.45
43741;BME280;29352;48.708;9.290;2023-04-09T01:49:14;98486.91;;;-0.63;81.79
43741;BME280;29352;48.708;9.290;2023-04-09T01:51:41;98491.75;;;-0.59;82.28
43741;BME280;29352;48.708;9.290;2023-04-09T01:54:07;98494.31;;;-0.48;81.66
43741;BME280;29352;48.708;9.290;2023-04-09T01:56:43;98487.88;;;-0.55;81.19
43741;BME280;29352;48.708;9.290;2023-04-09T01:59:11;98488.75;;;-0.44;81.15
43741;BME280;29352;48.708;9.290;2023-04-09T02:01:53;98492.44;;;-0.57;81.02
43741;BME280;29352;48.708;9.290;2023-04-09T02:04:31;98492.31;;;-0.55;81.10
43741;BME280;29352;48.708;9.290;2023-04-09T02:07:13;98486.34;;;-0.36;81.02
43741;BME280;29352;48.708;9.290;2023-04-09T02:09:52;98486.03;;;-0.43;80.65
43741;BME280;29352;48.708;9.290;2023-04-09T02:12:20;98487.31;;;-0.58;81.02
43741;BME280;29352;48.708;9.290;2023-04-09T02:14:50;98496.13;;;-0.90;82.40
43741;BME280;29352;48.708;9.290;2023-04-09T02:17:17;98492.19;;;-0.54;82.23
43741;BME280;29352;48.708;9.290;2023-04-09T02:19:44;98490.41;;;-0.53;81.48
43741;BME280;29352;48.708;9.290;2023-04-09T02:22:13;98493.75;;;-0.72;82.29
43741;BME280;29352;48.708;9.290;2023-04-09T02:24:39;98494.13;;;-0.77;82.75
43741;BME280;29352;48.708;9.290;2023-04-09T02:27:06;98490.50;;;-0.85;83.35
43741;BME280;29352;48.708;9.290;2023-04-09T02:29:32;98485.78;;;-0.91;83.51
43741;BME280;29352;48.708;9.290;2023-04-09T02:31:58;98484.72;;;-0.79;83.21
43741;BME280;29352;48.708;9.290;2023-04-09T02:34:24;98481.50;;;-0.92;82.81
43741;BME280;29352;48.708;9.290;2023-04-09T02:36:49;98479.69;;;-0.71;81.82
43741;BME280;29352;48.708;9.290;2023-04-09T02:39:15;98485.38;;;-0.87;83.14
43741;BME280;29352;48.708;9.290;2023-04-09T02:41:40;98481.81;;;-1.07;82.72
43741;BME280;29352;48.708;9.290;2023-04-09T02:44:06;98480.38;;;-0.69;82.55
43741;BME280;29352;48.708;9.290;2023-04-09T02:46:31;98482.69;;;-0.97;83.19
43741;BME280;29352;48.708;9.290;2023-04-09T02:48:57;98491.28;;;-0.95;82.99
43741;BME280;29352;48.708;9.290;2023-04-09T02:51:22;98484.31;;;-0.54;81.46
43741;BME280;29352;48.708;9.290;2023-04-09T02:53:48;98495.19;;;-0.89;82.11
43741;BME280;29352;48.708;9.290;2023-04-09T02:56:13;98485.84;;;-0.51;80.97
43741;BME280;29352;48.708;9.290;2023-04-09T02:58:39;98495.22;;;-0.79;82.73
43741;BME280;29352;48.708;9.290;2023-04-09T03:01:04;98484.69;;;-0.89;83.57
43741;BME280;29352;48.708;9.290;2023-04-09T03:03:30;98479.06;;;-0.84;82.92
43741;BME280;29352;48.708;9.290;2023-04-09T03:05:56;98481.19;;;-0.78;82.62
43741;BME280;29352;48.708;9.290;2023-04-09T03:08:22;98477.66;;;-0.88;83.13
43741;BME280;29352;48.708;9.290;2023-04-09T03:10:47;98479.25;;;-0.97;83.10
43741;BME280;29352;48.708;9.290;2023-04-09T03:13:13;98468.06;;;-0.78;82.94
43741;BME280;29352;48.708;9.290;2023-04-09T03:15:39;98465.03;;;-0.74;82.77
43741;BME280;29352;48.708;9.290;2023-04-09T03:18:05;98467.44;;;-0.91;83.08
43741;BME280;29352;48.708;9.290;2023-04-09T03:20:30;98469.16;;;-0.81;82.95
43741;BME280;29352;48.708;9.290;2023-04-09T03:22:56;98474.06;;;-0.87;82.70
43741;BME280;29352;48.708;9.290;2023-04-09T03:25:21;98476.69;;;-0.87;82.86
43741;BME280;29352;48.708;9.290;2023-04-09T03:27:47;98462.69;;;-0.77;82.85
43741;BME280;29352;48.708;9.290;2023-04-09T03:30:12;98468.63;;;-0.75;82.53
43741;BME280;29352;48.708;9.290;2023-04-09T03:32:38;98473.06;;;-0.96;83.31
43741;BME280;29352;48.708;9.290;2023-04-09T03:35:04;98473.91;;;-0.96;82.67
43741;BME280;29352;48.708;9.290;2023-04-09T03:37:29;98471.19;;;-0.84;82.19
43741;BME280;29352;48.708;9.290;2023-04-09T03:39:55;98477.53;;;-0.87;82.20
43741;BME280;29352;48.708;9.290;2023-04-09T03:42:20;98468.19;;;-0.80;82.15
43741;BME280;29352;48.708;9.290;2023-04-09T03:44:46;98479.22;;;-0.76;81.80
43741;BME280;29352;48.708;9.290;2023-04-09T03:47:11;98469.47;;;-0.74;81.67
43741;BME280;29352;48.708;9.290;2023-04-09T03:49:36;98475.88;;;-0.88;82.90
43741;BME280;29352;48.708;9.290;2023-04-09T03:52:02;98472.50;;;-0.69;82.51
43741;BME280;29352;48.708;9.290;2023-04-09T03:54:28;98475.97;;;-0.89;83.34
43741;BME280;29352;48.708;9.290;2023-04-09T03:56:54;98470.56;;;-0.98;82.82
43741;BME280;29352;48.708;9.290;2023-04-09T03:59:20;98470.94;;;-0.81;82.39
43741;BME280;29352;48.708;9.290;2023-04-09T04:01:46;98467.19;;;-0.88;83.47
43741;BME280;29352;48.708;9.290;2023-04-09T04:04:12;98466.31;;;-0.68;82.38
43741;BME280;29352;48.708;9.290;2023-04-09T04:06:38;98465.31;;;-0.98;82.99
43741;BME280;29352;48.708;9.290;2023-04-09T04:09:03;98466.47;;;-1.11;83.49
43741;BME280;29352;48.708;9.290;2023-04-09T04:11:29;98459.94;;;-1.38;83.97
43741;BME280;29352;48.708;9.290;2023-04-09T04:13:54;98467.78;;;-1.38;85.05
43741;BME280;29352;48.708;9.290;2023-04-09T04:16:20;98470.56;;;-1.39;85.68
43741;BME280;29352;48.708;9.290;2023-04-09T04:18:45;98475.81;;;-0.98;84.18
43741;BME280;29352;48.708;9.290;2023-04-09T04:21:12;98471.56;;;-1.31;84.53
43741;BME280;29352;48.708;9.290;2023-04-09T04:23:39;98475.53;;;-1.36;84.36
43741;BME280;29352;48.708;9.290;2023-04-09T04:26:08;98470.06;;;-1.33;84.03
43741;BME280;29352;48.708;9.290;2023-04-09T04:28:36;98472.19;;;-1.06;83.21
43741;BME280;29352;48.708;9.290;2023-04-09T04:31:11;98482.94;;;-1.21;84.02
43741;BME280;29352;48.708;9.290;2023-04-09T04:33:39;98479.63;;;-1.44;84.37
43741;BME280;29352;48.708;9.290;2023-04-09T04:36:07;98480.84;;;-1.48;84.52
43741;BME280;29352;48.708;9.290;2023-04-09T04:38:35;98487.53;;;-1.55;84.76
43741;BME280;29352;48.708;9.290;2023-04-09T04:41:01;98487.78;;;-1.58;85.08
43741;BME280;29352;48.708;9.290;2023-04-09T04:43:27;98495.75;;;-1.59;85.33
43741;BME280;29352;48.708;9.290;2023-04-09T04:45:53;98488.63;;;-1.69;85.41
43741;BME280;29352;48.708;9.290;2023-04-09T04:48:19;98484.38;;;-1.49;84.65
43741;BME280;29352;48.708;9.290;2023-04-09T04:50:45;98484.47;;;-1.39;84.66
43741;BME280;29352;48.708;9.290;2023-04-09T04:53:10;98487.50;;;-1.23;83.78
43741;BME280;29352;48.708;9.290;2023-04-09T04:55:36;98481.34;;;-1.33;84.15
43741;BME280;29352;48.708;9.290;2023-04-09T04:58:04;98486.47;;;-0.89;83.29
43741;BME280;29352;48.708;9.290;2023-04-09T05:00:30;98479.66;;;-0.50;82.15
43741;BME280;29352;48.708;9.290;2023-04-09T05:02:56;98482.44;;;-0.02;80.03
43741;BME280;29352;48.708;9.290;2023-04-09T05:05:21;98486.28;;;0.64;77.92
43741;BME280;29352;48.708;9.290;2023-04-09T05:07:47;98481.97;;;0.92;77.24
43741;BME280;29352;48.708;9.290;2023-04-09T05:10:12;98483.94;;;1.74;74.60
43741;BME280;29352;48.708;9.290;2023-04-09T05:12:38;98480.47;;;1.74;74.33
43741;BME280;29352;48.708;9.290;2023-04-09T05:15:04;98478.50;;;2.13;74.34
43741;BME280;29352;48.708;9.290;2023-04-09T05:17:30;98466.00;;;2.33;72.67
43741;BME280;29352;48.708;9.290;2023-04-09T05:19:55;98477.34;;;3.05;70.84
43741;BME280;29352;48.708;9.290;2023-04-09T05:22:22;98478.94;;;3.42;68.98
43741;BME280;29352;48.708;9.290;2023-04-09T05:24:48;98483.16;;;3.61;69.06
43741;BME280;29352;48.708;9.290;2023-04-09T05:27:13;98481.66;;;3.58;67.59
43741;BME280;29352;48.708;9.290;2023-04-09T05:29:39;98477.38;;;4.74;65.24
43741;BME280;29352;48.708;9.290;2023-04-09T05:32:05;98478.31;;;5.31;62.72
43741;BME280;29352;48.708;9.290;2023-04-09T05:34:33;98471.31;;;6.87;58.73
43741;BME280;29352;48.708;9.290;2023-04-09T05:36:59;98469.38;;;6.81;59.46
43741;BME280;29352;48.708;9.290;2023-04-09T05:39:25;98472.50;;;7.67;57.48
43741;BME280;29352;48.708;9.290;2023-04-09T05:41:50;98470.75;;;7.59;57.49
43741;BME280;29352;48.708;9.290;2023-04-09T05:44:16;98477.81;;;7.37;57.01
43741;BME280;29352;48.708;9.290;2023-04-09T05:46:42;98464.66;;;8.24;55.64
43741;BME280;29352;48.708;9.290;2023-04-09T05:49:07;98476.66;;;7.84;56.08
43741;BME280;29352;48.708;9.290;2023-04-09T05:51:33;98474.56;;;9.79;51.77
43741;BME280;29352;48.708;9.290;2023-04-09T05:53:58;98473.22;;;8.77;53.68
43741;BME280;29352;48.708;9.290;2023-04-09T05:56:24;98474.19;;;8.76;54.43
43741;BME280;29352;48.708;9.290;2023-04-09T05:58:51;98471.94;;;10.40;51.12
43741;BME280;29352;48.708;9.290;2023-04-09T06:01:16;98475.69;;;9.63;51.50
43741;BME280;29352;48.708;9.290;2023-04-09T06:03:42;98475.69;;;10.05;51.59
43741;BME280;29352;48.708;9.290;2023-04-09T06:06:07;98483.56;;;10.26;50.37
43741;BME280;29352;48.708;9.290;2023-04-09T06:08:33;98485.69;;;9.27;51.36
43741;BME280;29352;48.708;9.290;2023-04-09T06:10:58;98481.22;;;8.05;54.16
43741;BME280;29352;48.708;9.290;2023-04-09T06:13:24;98479.28;;;8.35;54.13
43741;BME280;29352;48.708;9.290;2023-04-09T06:15:49;98486.66;;;8.54;54.18
43741;BME280;29352;48.708;9.290;2023-04-09T06:18:15;98483.59;;;9.22;52.13
43741;BME280;29352;48.708;9.290;2023-04-09T06:20:40;98488.22;;;10.11;50.53
43741;BME280;29352;48.708;9.290;2023-04-09T06:23:06;98490.28;;;6.76;54.82
43741;BME280;29352;48.708;9.290;2023-04-09T06:25:31;98485.91;;;8.24;53.53
43741;BME280;29352;48.708;9.290;2023-04-09T06:27:57;98489.25;;;7.52;54.57
43741;BME280;29352;48.708;9.290;2023-04-09T06:30:23;98480.38;;;8.41;52.33
43741;BME280;29352;48.708;9.290;2023-04-09T06:32:49;98490.53;;;9.16;51.04
43741;BME280;29352;48.708;9.290;2023-04-09T06:35:15;98479.72;;;8.75;51.67
43741;BME280;29352;48.708;9.290;2023-04-09T06:37:40;98477.72;;;8.41;51.84
43741;BME280;29352;48.708;9.290;2023-04-09T06:40:06;98469.81;;;8.90;50.84
43741;BME280;29352;48.708;9.290;2023-04-09T06:42:32;98480.78;;;9.93;50.26
43741;BME280;29352;48.708;9.290;2023-04-09T06:44:58;98485.41;;;9.49;49.46
43741;BME280;29352;48.708;9.290;2023-04-09T06:47:24;98482.03;;;10.52;48.83
43741;BME280;29352;48.708;9.290;2023-04-09T06:49:49;98484.69;;;10.52;48.80
43741;BME280;29352;48.708;9.290;2023-04-09T06:52:15;98482.47;;;10.62;47.74
43741;BME280;29352;48.708;9.290;2023-04-09T06:54:41;98482.22;;;10.50;48.77
43741;BME280;29352;48.708;9.290;2023-04-09T06:57:07;98488.75;;;9.86;49.29
43741;BME280;29352;48.708;9.290;2023-04-09T06:59:32;98481.75;;;10.27;48.51
43741;BME280;29352;48.708;9.290;2023-04-09T07:01:59;98485.75;;;10.77;48.66
43741;BME280;29352;48.708;9.290;2023-04-09T07:04:25;98494.84;;;9.80;49.41
43741;BME280;29352;48.708;9.290;2023-04-09T07:06:51;98486.81;;;11.43;46.15
43741;BME280;29352;48.708;9.290;2023-04-09T07:09:19;98484.75;;;11.58;46.24
43741;BME280;29352;48.708;9.290;2023-04-09T07:11:44;98484.75;;;10.92;47.05
43741;BME280;29352;48.708;9.290;2023-04-09T07:14:10;98490.88;;;9.63;49.13
43741;BME280;29352;48.708;9.290;2023-04-09T07:16:35;98493.72;;;9.05;50.92
43741;BME280;29352;48.708;9.290;2023-04-09T07:19:01;98482.09;;;10.10;49.77
43741;BME280;29352;48.708;9.290;2023-04-09T07:21:27;98482.09;;;11.45;46.55
43741;BME280;29352;48.708;9.290;2023-04-09T07:23:53;98480.84;;;12.89;45.27
43741;BME280;29352;48.708;9.290;2023-04-09T07:26:18;98490.03;;;11.71;45.56
43741;BME280;29352;48.708;9.290;2023-04-09T07:28:44;98486.88;;;12.84;42.53
43741;BME280;29352;48.708;9.290;2023-04-09T07:31:09;98486.78;;;11.69;44.11
43741;BME280;29352;48.708;9.290;2023-04-09T07:33:35;98489.28;;;10.98;44.94
43741;BME280;29352;48.708;9.290;2023-04-09T07:36:01;98495.22;;;11.59;44.56
43741;BME280;29352;48.708;9.290;2023-04-09T07:38:30;98497.28;;;10.98;44.29
43741;BME280;29352;48.708;9.290;2023-04-09T07:40:55;98502.59;;;10.71;45.62
43741;BME280;29352;48.708;9.290;2023-04-09T07:43:21;98522.56;;;11.28;45.14
43741;BME280;29352;48.708;9.290;2023-04-09T07:45:49;98514.00;;;8.85;48.64
43741;BME280;29352;48.708;9.290;2023-04-09T07:48:15;98526.72;;;7.43;51.61
43741;BME280;29352;48.708;9.290;2023-04-09T07:50:41;98520.13;;;8.27;50.90
43741;BME280;29352;48.708;9.290;2023-04-09T07:53:09;98522.16;;;8.11;50.89
43741;BME280;29352;48.708;9.290;2023-04-09T07:55:36;98521.63;;;8.00;51.87
43741;BME280;29352;48.708;9.290;2023-04-09T07:58:01;98519.13;;;8.86;50.23
43741;BME280;29352;48.708;9.290;2023-04-09T08:00:28;98518.03;;;9.23;48.88
43741;BME280;29352;48.708;9.290;2023-04-09T08:02:54;98517.88;;;9.60;49.42
43741;BME280;29352;48.708;9.290;2023-04-09T08:05:19;98518.47;;;10.31;48.83
43741;BME280;29352;48.708;9.290;2023-04-09T08:07:45;98522.16;;;9.05;49.85
43741;BME280;29352;48.708;9.290;2023-04-09T08:10:11;98516.13;;;9.45;49.83
43741;BME280;29352;48.708;9.290;2023-04-09T08:12:39;98526.13;;;4.56;57.82
43741;BME280;29352;48.708;9.290;2023-04-09T08:15:05;98531.22;;;5.55;56.54
43741;BME280;29352;48.708;9.290;2023-04-09T08:17:31;98531.13;;;6.35;55.00
43741;BME280;29352;48.708;9.290;2023-04-09T08:19:57;98511.41;;;9.13;51.46
43741;BME280;29352;48.708;9.290;2023-04-09T08:22:22;98519.94;;;7.02;53.90
43741;BME280;29352;48.708;9.290;2023-04-09T08:24:51;98519.16;;;6.71;55.87
43741;BME280;29352;48.708;9.290;2023-04-09T08:27:18;98519.00;;;8.37;50.01
43741;BME280;29352;48.708;9.290;2023-04-09T08:29:44;98538.38;;;7.71;51.99
43741;BME280;29352;48.708;9.290;2023-04-09T08:32:09;98529.94;;;7.68;51.31
43741;BME280;29352;48.708;9.290;2023-04-09T08:34:35;98536.72;;;5.29;57.28
43741;BME280;29352;48.708;9.290;2023-04-09T08:37:01;98539.50;;;3.25;61.27
43741;BME280;29352;48.708;9.290;2023-04-09T08:39:27;98541.88;;;5.14;57.62
43741;BME280;29352;48.708;9.290;2023-04-09T08:41:53;98540.94;;;5.79;56.90
43741;BME280;29352;48.708;9.290;2023-04-09T08:44:28;98543.50;;;5.32;58.31
43741;BME280;29352;48.708;9.290;2023-04-09T08:46:54;98536.63;;;6.88;54.18
43741;BME280;29352;48.708;9.290;2023-04-09T08:49:20;98533.13;;;7.10;53.28
43741;BME280;29352;48.708;9.290;2023-04-09T08:51:47;98541.31;;;7.24;53.06
43741;BME280;29352;48.708;9.290;2023-04-09T08:54:15;98535.78;;;7.10;52.31
43741;BME280;29352;48.708;9.290;2023-04-09T08:56:42;98538.81;;;6.84;52.93
43741;BME280;29352;48.708;9.290;2023-04-09T08:59:08;98550.47;;;6.75;52.85
43741;BME280;29352;48.708;9.290;2023-04-09T09:01:34;98550.00;;;6.01;52.78
43741;BME280;29352;48.708;9.290;2023-04-09T09:04:05;98532.50;;;7.61;50.98
43741;BME280;29352;48.708;9.290;2023-04-09T09:06:38;98556.63;;;6.68;50.31
43741;BME280;29352;48.708;9.290;2023-04-09T09:09:14;98543.53;;;7.35;50.47
43741;BME280;29352;48.708;9.290;2023-04-09T09:11:46;98551.84;;;6.94;51.71
43741;BME280;29352;48.708;9.290;2023-04-09T09:14:16;98539.22;;;7.34;51.60
43741;BME280;29352;48.708;9.290;2023-04-09T09:24:26;98535.63;;;6.58;50.21
43741;BME280;29352;48.708;9.290;2023-04-09T09:26:52;98554.34;;;5.94;52.15
43741;BME280;29352;48.708;9.290;2023-04-09T09:29:25;98563.34;;;5.19;53.82
43741;BME280;29352;48.708;9.290;2023-04-09T09:31:53;98560.22;;;6.12;52.79
43741;BME280;29352;48.708;9.290;2023-04-09T09:34:22;98563.31;;;5.60;53.85
43741;BME280;29352;48.708;9.290;2023-04-09T09:36:49;98556.94;;;6.02;51.70
43741;BME280;29352;48.708;9.290;2023-04-09T09:39:15;98561.25;;;6.74;52.80
43741;BME280;29352;48.708;9.290;2023-04-09T09:41:43;98559.94;;;6.38;53.02
43741;BME280;29352;48.708;9.290;2023-04-09T09:44:29;98555.75;;;6.44;52.37
43741;BME280;29352;48.708;9.290;2023-04-09T09:46:57;98549.69;;;6.67;51.94
43741;BME280;29352;48.708;9.290;2023-04-09T09:49:23;98566.28;;;6.60;50.92
43741;BME280;29352;48.708;9.290;2023-04-09T09:51:50;98554.31;;;7.56;49.84
43741;BME280;29352;48.708;9.290;2023-04-09T09:54:22;98575.22;;;5.48;53.23
43741;BME280;29352;48.708;9.290;2023-04-09T09:56:54;98557.84;;;6.26;52.36
43741;BME280;29352;48.708;9.290;2023-04-09T09:59:31;98554.06;;;5.56;52.87
43741;BME280;29352;48.708;9.290;2023-04-09T10:02:05;98539.06;;;6.98;51.08
43741;BME280;29352;48.708;9.290;2023-04-09T10:04:43;98542.56;;;7.13;49.96
43741;BME280;29352;48.708;9.290;2023-04-09T10:07:09;98548.88;;;6.89;50.59
43741;BME280;29352;48.708;9.290;2023-04-09T10:09:37;98539.97;;;6.51;50.36
43741;BME280;29352;48.708;9.290;2023-04-09T10:12:06;98542.09;;;7.47;49.40
43741;BME280;29352;48.708;9.290;2023-04-09T10:14:34;98539.19;;;7.57;49.16
43741;BME280;29352;48.708;9.290;2023-04-09T10:17:01;98544.97;;;7.23;48.15
43741;BME280;29352;48.708;9.290;2023-04-09T10:19:33;98551.81;;;7.70;48.82
43741;BME280;29352;48.708;9.290;2023-04-09T10:22:11;98564.63;;;5.81;51.77
43741;BME280;29352;48.708;9.290;2023-04-09T10:24:41;98555.94;;;7.43;48.30
43741;BME280;29352;48.708;9.290;2023-04-09T10:27:15;98537.78;;;7.84;48.18
43741;BME280;29352;48.708;9.290;2023-04-09T10:29:46;98533.16;;;8.08;48.24
43741;BME280;29352;48.708;9.290;2023-04-09T10:32:22;98533.91;;;8.01;48.35
43741;BME280;29352;48.708;9.290;2023-04-09T10:34:51;98538.97;;;7.81;48.99
43741;BME280;29352;48.708;9.290;2023-04-09T10:37:21;98529.22;;;8.03;49.70
43741;BME280;29352;48.708;9.290;2023-04-09T10:39:49;98536.81;;;8.36;48.65
43741;BME280;29352;48.708;9.290;2023-04-09T10:42:23;98532.34;;;8.58;46.52
43741;BME280;29352;48.708;9.290;2023-04-09T10:47:36;98523.72;;;7.08;47.10
43741;BME280;29352;48.708;9.290;2023-04-09T10:50:15;98539.72;;;7.52;46.91
43741;BME280;29352;48.708;9.290;2023-04-09T10:52:46;98544.53;;;6.96;48.13
43741;BME280;29352;48.708;9.290;2023-04-09T10:55:39;98538.91;;;6.37;50.58
43741;BME280;29352;48.708;9.290;2023-04-09T10:58:10;98529.38;;;7.72;47.50
43741;BME280;29352;48.708;9.290;2023-04-09T11:00:41;98524.19;;;7.26;49.14
43741;BME280;29352;48.708;9.290;2023-04-09T11:05:34;98523.47;;;6.40;49.70
43741;BME280;29352;48.708;9.290;2023-04-09T11:08:07;98531.53;;;5.77;49.53
43741;BME280;29352;48.708;9.290;2023-04-09T11:10:34;98532.50;;;5.76;49.72
43741;BME280;29352;48.708;9.290;2023-04-09T11:13:02;98522.50;;;4.73;51.54
43741;BME280;29352;48.708;9.290;2023-04-09T11:15:28;98524.53;;;4.28;52.57
43741;BME280;29352;48.708;9.290;2023-04-09T11:17:54;98522.06;;;6.84;48.98
43741;BME280;29352;48.708;9.290;2023-04-09T11:20:23;98522.44;;;6.50;47.04
43741;BME280;29352;48.708;9.290;2023-04-09T11:22:51;98508.47;;;6.87;47.22
43741;BME280;29352;48.708;9.290;2023-04-09T11:25:19;98512.56;;;6.67;47.71
43741;BME280;29352;48.708;9.290;2023-04-09T11:27:55;98498.63;;;6.64;47.37
43741;BME280;29352;48.708;9.290;2023-04-09T11:30:21;98499.91;;;6.77;48.80
43741;BME280;29352;48.708;9.290;2023-04-09T11:32:48;98500.00;;;7.74;45.61
43741;BME280;29352;48.708;9.290;2023-04-09T11:35:19;98492.03;;;7.06;46.52
43741;BME280;29352;48.708;9.290;2023-04-09T11:37:47;98512.47;;;7.21;45.55
43741;BME280;29352;48.708;9.290;2023-04-09T11:40:22;98505.41;;;5.57;47.41
43741;BME280;29352;48.708;9.290;2023-04-09T11:42:51;98507.88;;;5.67;47.76
43741;BME280;29352;48.708;9.290;2023-04-09T11:45:21;98506.13;;;4.69;49.17
43741;BME280;29352;48.708;9.290;2023-04-09T11:47:52;98500.81;;;5.35;49.22
43741;BME280;29352;48.708;9.290;2023-04-09T11:50:18;98506.94;;;5.19;49.72
43741;BME280;29352;48.708;9.290;2023-04-09T11:52:45;98503.94;;;6.02;48.00
43741;BME280;29352;48.708;9.290;2023-04-09T11:55:22;98514.50;;;4.48;50.21
43741;BME280;29352;48.708;9.290;2023-04-09T11:57:56;98501.00;;;5.09;49.53
43741;BME280;29352;48.708;9.290;2023-04-09T12:00:26;98497.84;;;5.13;50.14
43741;BME280;29352;48.708;9.290;2023-04-09T12:03:01;98504.25;;;5.60;48.72
43741;BME280;29352;48.708;9.290;2023-04-09T12:05:30;98503.13;;;5.46;48.51
43741;BME280;29352;48.708;9.290;2023-04-09T12:08:01;98494.66;;;6.06;48.33
43741;BME280;29352;48.708;9.290;2023-04-09T12:10:33;98503.09;;;6.64;47.80
43741;BME280;29352;48.708;9.290;2023-04-09T12:13:02;98493.41;;;7.17;45.58
43741;BME280;29352;48.708;9.290;2023-04-09T12:15:35;98493.34;;;5.46;48.66
43741;BME280;29352;48.708;9.290;2023-04-09T12:18:06;98496.06;;;6.79;47.07
43741;BME280;29352;48.708;9.290;2023-04-09T12:20:36;98492.97;;;6.68;46.64
43741;BME280;29352;48.708;9.290;2023-04-09T12:23:04;98485.09;;;6.59;47.94
43741;BME280;29352;48.708;9.290;2023-04-09T12:25:36;98497.88;;;5.85;48.54
43741;BME280;29352;48.708;9.290;2023-04-09T12:28:04;98493.38;;;5.22;48.92
43741;BME280;29352;48.708;9.290;2023-04-09T12:30:32;98491.19;;;6.37;47.57
43741;BME280;29352;48.708;9.290;2023-04-09T12:32:58;98492.78;;;5.76;48.50
43741;BME280;29352;48.708;9.290;2023-04-09T12:35:24;98484.66;;;6.16;47.96
43741;BME280;29352;48.708;9.290;2023-04-09T12:37:50;98487.53;;;5.59;48.04
43741;BME280;29352;48.708;9.290;2023-04-09T12:40:17;98478.38;;;6.49;46.53
43741;BME280;29352;48.708;9.290;2023-04-09T12:42:44;98474.88;;;6.17;47.67
43741;BME280;29352;48.708;9.290;2023-04-09T12:45:15;98477.59;;;5.69;49.36
43741;BME280;29352;48.708;9.290;2023-04-09T12:47:42;98477.25;;;5.73;47.64
43741;BME280;29352;48.708;9.290;2023-04-09T12:50:10;98484.72;;;6.00;46.98
43741;BME280;29352;48.708;9.290;2023-04-09T12:52:36;98469.09;;;6.22;46.58
43741;BME280;29352;48.708;9.290;2023-04-09T12:55:03;98466.56;;;6.51;47.38
43741;BME280;29352;48.708;9.290;2023-04-09T12:57:30;98454.81;;;6.77;45.83
43741;BME280;29352;48.708;9.290;2023-04-09T12:59:56;98453.94;;;6.07;47.66
43741;BME280;29352;48.708;9.290;2023-04-09T13:02:22;98454.44;;;6.57;46.89
43741;BME280;29352;48.708;9.290;2023-04-09T13:04:48;98454.88;;;7.06;46.90
43741;BME280;29352;48.708;9.290;2023-04-09T13:07:14;98447.13;;;6.82;46.18
43741;BME280;29352;48.708;9.290;2023-04-09T13:09:43;98453.00;;;7.59;46.15
43741;BME280;29352;48.708;9.290;2023-04-09T13:12:09;98448.13;;;7.48;46.43
43741;BME280;29352;48.708;9.290;2023-04-09T13:14:38;98445.63;;;8.06;44.47
43741;BME280;29352;48.708;9.290;2023-04-09T13:17:04;98444.19;;;8.25;44.38
43741;BME280;29352;48.708;9.290;2023-04-09T13:19:30;98446.28;;;7.19;45.44
43741;BME280;29352;48.708;9.290;2023-04-09T13:21:55;98445.84;;;6.24;47.15
43741;BME280;29352;48.708;9.290;2023-04-09T13:24:20;98435.84;;;7.18;45.98
43741;BME280;29352;48.708;9.290;2023-04-09T13:26:46;98433.78;;;7.43;45.61
43741;BME280;29352;48.708;9.290;2023-04-09T13:29:11;98440.50;;;7.01;46.35
43741;BME280;29352;48.708;9.290;2023-04-09T13:31:37;98441.22;;;6.95;44.86